createdAt,value
2019-01-19T00:00:17.024Z,98592.75
2019-01-19T00:03:54.935Z,98591.30
2019-01-19T00:07:04.091Z,98594.61
2019-01-19T00:10:10.572Z,98590.93
2019-01-19T00:13:27.810Z,98587.62
2019-01-19T00:16:27.832Z,98586.01
2019-01-19T00:20:06.604Z,98591.63
2019-01-19T00:23:43.261Z,98592.64
2019-01-19T00:27:06.654Z,98589.33
2019-01-19T00:30:33.954Z,98586.84
2019-01-19T00:34:03.271Z,98591.67
2019-01-19T00:37:27.955Z,98588.72
2019-01-19T00:41:08.030Z,98588.09
2019-01-19T00:44:29.536Z,98591.36
2019-01-19T00:47:21.417Z,98589.61
2019-01-19T00:50:31.245Z,98581.45
2019-01-19T00:53:36.605Z,98583.87
2019-01-19T00:56:43.539Z,98585.48
2019-01-19T00:59:28.007Z,98583.77
2019-01-19T01:03:03.624Z,98583.66
2019-01-19T01:06:27.628Z,98590.31
2019-01-19T01:09:56.651Z,98581.11
2019-01-19T01:13:31.634Z,98579.86
2019-01-19T01:16:56.751Z,98577.39
2019-01-19T01:20:33.166Z,98581.06
2019-01-19T01:23:47.739Z,98580.97
2019-01-19T01:27:02.652Z,98578.66
2019-01-19T01:30:51.789Z,98573.79
2019-01-19T01:34:25.941Z,98578.66
2019-01-19T01:37:53.254Z,98575.78
2019-01-19T01:40:59.374Z,98575.06
2019-01-19T01:44:31.467Z,98572.78
2019-01-19T01:47:57.938Z,98568.91
2019-01-19T01:50:58.839Z,98560.77
2019-01-19T01:54:20.924Z,98559.00
2019-01-19T01:56:52.897Z,98558.88
2019-01-19T01:59:49.013Z,98563.06
2019-01-19T02:03:04.925Z,98555.05
2019-01-19T02:05:50.351Z,98553.17
2019-01-19T02:09:19.976Z,98548.93
2019-01-19T02:12:49.272Z,98539.45
2019-01-19T02:16:41.029Z,98538.61
2019-01-19T02:20:15.049Z,98546.58
2019-01-19T02:24:05.610Z,98549.45
2019-01-19T02:27:54.776Z,98543.12
2019-01-19T02:31:25.524Z,98533.95
2019-01-19T02:34:22.279Z,98535.70
2019-01-19T02:37:30.314Z,98536.66
2019-01-19T02:40:51.556Z,98531.16
2019-01-19T02:44:26.711Z,98527.97
2019-01-19T02:47:54.095Z,98526.70
2019-01-19T02:50:43.304Z,98524.81
2019-01-19T02:53:57.729Z,98529.30
2019-01-19T02:57:44.001Z,98522.73
2019-01-19T03:00:52.943Z,98525.02
2019-01-19T03:04:17.615Z,98518.46
2019-01-19T03:07:44.796Z,98522.55
2019-01-19T03:11:07.374Z,98519.67
2019-01-19T03:14:38.136Z,98526.50
2019-01-19T03:18:13.997Z,98529.31
2019-01-19T03:21:10.893Z,98521.95
2019-01-19T03:24:28.533Z,98528.89
2019-01-19T03:28:01.614Z,98523.16
2019-01-19T03:31:27.176Z,98517.91
2019-01-19T03:34:48.003Z,98514.83
2019-01-19T03:38:16.024Z,98525.17
2019-01-19T03:41:26.455Z,98525.83
2019-01-19T03:44:49.527Z,98527.42
2019-01-19T03:48:47.697Z,98520.71
2019-01-19T03:51:49.039Z,98516.11
2019-01-19T03:54:59.546Z,98517.61
2019-01-19T03:58:15.810Z,98510.90
2019-01-19T04:01:42.074Z,98522.34
2019-01-19T04:05:38.073Z,98514.03
2019-01-19T04:08:52.197Z,98514.42
2019-01-19T04:12:35.539Z,98517.83
2019-01-19T04:15:55.931Z,98513.01
2019-01-19T04:19:06.021Z,98514.64
2019-01-19T04:22:36.977Z,98507.30
2019-01-19T04:25:42.704Z,98506.47
2019-01-19T04:28:18.470Z,98502.91
2019-01-19T04:30:50.424Z,98508.26
2019-01-19T04:33:23.054Z,98507.19
2019-01-19T04:35:55.386Z,98507.39
2019-01-19T04:38:27.599Z,98512.21
2019-01-19T04:40:59.918Z,98513.07
2019-01-19T04:43:31.959Z,98512.95
2019-01-19T04:46:04.047Z,98509.84
2019-01-19T04:48:36.502Z,98506.55
2019-01-19T04:51:08.863Z,98503.20
2019-01-19T04:53:40.905Z,98509.41
2019-01-19T04:56:13.058Z,98510.22
2019-01-19T04:58:45.118Z,98502.95
2019-01-19T05:01:16.852Z,98500.06
2019-01-19T05:03:48.689Z,98506.98
2019-01-19T05:06:20.522Z,98503.55
2019-01-19T05:08:52.735Z,98500.70
2019-01-19T05:11:24.746Z,98501.67
2019-01-19T05:13:56.509Z,98500.51
2019-01-19T05:16:28.357Z,98498.28
2019-01-19T05:19:00.124Z,98495.59
2019-01-19T05:21:32.071Z,98497.34
2019-01-19T05:24:03.840Z,98493.95
2019-01-19T05:26:35.631Z,98489.09
2019-01-19T05:29:07.712Z,98488.35
2019-01-19T05:31:39.475Z,98485.30
2019-01-19T05:34:11.307Z,98490.27
2019-01-19T05:36:43.055Z,98492.06
2019-01-19T05:39:14.820Z,98490.39
2019-01-19T05:41:46.585Z,98486.95
2019-01-19T05:44:18.364Z,98494.69
2019-01-19T05:46:50.124Z,98486.87
2019-01-19T05:49:21.893Z,98489.44
2019-01-19T05:51:53.635Z,98488.31
2019-01-19T05:54:25.476Z,98494.61
2019-01-19T05:56:57.366Z,98491.20
2019-01-19T05:59:29.516Z,98493.74
2019-01-19T06:02:01.707Z,98490.88
2019-01-19T06:04:33.503Z,98491.48
2019-01-19T06:07:05.291Z,98490.54
2019-01-19T06:09:37.056Z,98493.78
2019-01-19T06:12:08.866Z,98498.47
2019-01-19T06:14:40.632Z,98501.76
2019-01-19T06:17:12.377Z,98493.47
2019-01-19T06:19:45.169Z,98488.78
2019-01-19T06:22:18.198Z,98493.13
2019-01-19T06:24:49.081Z,98493.05
2019-01-19T06:27:21.104Z,98488.05
2019-01-19T06:29:53.142Z,98485.31
2019-01-19T06:32:24.889Z,98486.59
2019-01-19T06:34:56.691Z,98482.22
2019-01-19T06:37:28.415Z,98484.84
2019-01-19T06:40:00.297Z,98484.68
2019-01-19T06:42:32.544Z,98484.25
2019-01-19T06:45:04.592Z,98481.94
2019-01-19T06:47:37.097Z,98489.25
2019-01-19T06:50:11.740Z,98496.47
2019-01-19T06:52:43.511Z,98485.41
2019-01-19T06:55:18.935Z,98479.91
2019-01-19T06:57:51.154Z,98485.97
2019-01-19T07:00:23.585Z,98484.22
2019-01-19T07:02:55.936Z,98485.89
2019-01-19T07:05:28.130Z,98480.96
2019-01-19T07:07:59.923Z,98490.99
2019-01-19T07:10:31.803Z,98485.14
2019-01-19T07:13:03.595Z,98479.28
2019-01-19T07:15:35.661Z,98481.51
2019-01-19T07:18:07.417Z,98476.39
2019-01-19T07:20:39.311Z,98477.60
2019-01-19T07:23:11.104Z,98479.28
2019-01-19T07:25:43.604Z,98484.44
2019-01-19T07:28:16.482Z,98479.04
2019-01-19T07:30:48.885Z,98486.64
2019-01-19T07:33:21.111Z,98480.30
2019-01-19T07:35:52.950Z,98480.31
2019-01-19T07:38:24.810Z,98485.34
2019-01-19T07:40:56.597Z,98484.66
2019-01-19T07:43:28.959Z,98489.09
2019-01-19T07:46:01.117Z,98486.16
2019-01-19T07:48:32.886Z,98486.28
2019-01-19T07:51:04.709Z,98487.02
2019-01-19T07:53:36.500Z,98488.81
2019-01-19T07:56:08.309Z,98494.92
2019-01-19T07:58:40.086Z,98495.58
2019-01-19T08:01:11.967Z,98494.54
2019-01-19T08:03:43.706Z,98497.51
2019-01-19T08:06:15.922Z,98492.13
2019-01-19T08:08:48.030Z,98492.95
2019-01-19T08:11:19.794Z,98491.58
2019-01-19T08:13:51.894Z,98490.80
2019-01-19T08:16:24.008Z,98495.19
2019-01-19T08:18:55.753Z,98492.45
2019-01-19T08:21:27.655Z,98492.09
2019-01-19T08:23:59.469Z,98487.84
2019-01-19T08:26:31.262Z,98492.99
2019-01-19T08:29:03.021Z,98492.02
2019-01-19T08:31:34.791Z,98485.65
2019-01-19T08:34:06.551Z,98484.17
2019-01-19T08:36:38.358Z,98484.37
2019-01-19T08:39:10.904Z,98479.14
2019-01-19T08:41:42.959Z,98479.13
2019-01-19T08:44:15.033Z,98476.81
2019-01-19T08:46:46.899Z,98463.47
2019-01-19T08:49:18.693Z,98468.16
2019-01-19T08:51:50.442Z,98463.75
2019-01-19T08:54:22.368Z,98462.25
2019-01-19T08:56:54.110Z,98465.75
2019-01-19T08:59:25.870Z,98456.73
2019-01-19T09:01:57.623Z,98459.31
2019-01-19T09:04:29.606Z,98457.44
2019-01-19T09:07:01.447Z,98453.41
2019-01-19T09:09:33.221Z,98450.52
2019-01-19T09:12:05.415Z,98453.54
2019-01-19T09:14:37.602Z,98445.33
2019-01-19T09:17:09.383Z,98444.83
2019-01-19T09:19:41.173Z,98446.98
2019-01-19T09:22:12.964Z,98436.67
2019-01-19T09:24:44.795Z,98444.93
2019-01-19T09:27:16.656Z,98443.36
2019-01-19T09:29:48.417Z,98446.98
2019-01-19T09:32:20.565Z,98447.84
2019-01-19T09:34:52.612Z,98440.12
2019-01-19T09:37:24.487Z,98438.23
2019-01-19T09:39:56.850Z,98440.72
2019-01-19T09:42:28.918Z,98441.30
2019-01-19T09:45:00.674Z,98439.55
2019-01-19T09:47:32.466Z,98441.42
2019-01-19T09:50:05.033Z,98435.91
2019-01-19T09:52:37.198Z,98442.42
2019-01-19T09:55:09.460Z,98438.35
2019-01-19T09:57:41.644Z,98428.92
2019-01-19T10:00:16.674Z,98430.13
2019-01-19T10:02:48.477Z,98434.89
2019-01-19T10:05:22.286Z,98433.48
2019-01-19T10:07:55.729Z,98429.69
2019-01-19T10:10:27.550Z,98429.46
2019-01-19T10:12:59.340Z,98427.62
2019-01-19T10:15:31.137Z,98419.01
2019-01-19T10:18:02.924Z,98420.46
2019-01-19T10:20:35.110Z,98415.63
2019-01-19T10:23:07.300Z,98411.69
2019-01-19T10:25:39.405Z,98413.16
2019-01-19T10:28:11.203Z,98413.08
2019-01-19T10:30:43.429Z,98413.36
2019-01-19T10:33:15.494Z,98399.27
2019-01-19T10:35:47.297Z,98399.52
2019-01-19T10:38:19.363Z,98392.25
2019-01-19T10:40:51.337Z,98391.02
2019-01-19T10:43:23.495Z,98383.34
2019-01-19T10:45:55.350Z,98387.10
2019-01-19T10:48:27.507Z,98382.14
2019-01-19T10:51:00.307Z,98381.02
2019-01-19T10:53:33.362Z,98380.66
2019-01-19T10:56:06.484Z,98374.11
2019-01-19T10:58:38.254Z,98369.34
2019-01-19T11:01:10.026Z,98371.51
2019-01-19T11:03:41.811Z,98368.31
2019-01-19T11:06:13.586Z,98363.37
2019-01-19T11:08:45.415Z,98358.48
2019-01-19T11:11:17.154Z,98360.07
2019-01-19T11:13:49.099Z,98352.80
2019-01-19T11:16:20.879Z,98353.59
2019-01-19T11:18:52.751Z,98346.84
2019-01-19T11:21:24.877Z,98343.41
2019-01-19T11:23:56.633Z,98341.50
2019-01-19T11:26:28.391Z,98331.13
2019-01-19T11:29:00.805Z,98330.50
2019-01-19T11:31:33.142Z,98326.98
2019-01-19T11:34:05.599Z,98327.16
2019-01-19T11:36:39.074Z,98320.22
2019-01-19T11:39:10.844Z,98314.59
2019-01-19T11:41:43.161Z,98313.26
2019-01-19T11:44:15.509Z,98305.67
2019-01-19T11:46:47.841Z,98298.40
2019-01-19T11:49:20.161Z,98296.88
2019-01-19T11:51:52.490Z,98291.89
2019-01-19T11:54:25.081Z,98280.63
2019-01-19T11:56:56.864Z,98280.16
2019-01-19T11:59:29.194Z,98275.40
2019-01-19T12:02:01.790Z,98266.30
2019-01-19T12:04:33.659Z,98267.86
2019-01-19T12:07:06.156Z,98263.75
2019-01-19T12:09:38.475Z,98259.92
2019-01-19T12:12:10.780Z,98263.38
2019-01-19T12:14:43.143Z,98254.80
2019-01-19T12:17:15.515Z,98246.17
2019-01-19T12:19:48.289Z,98247.09
2019-01-19T12:22:20.347Z,98240.08
2019-01-19T12:24:52.732Z,98236.30
2019-01-19T12:27:25.139Z,98234.84
2019-01-19T12:29:57.466Z,98227.34
2019-01-19T12:32:29.834Z,98227.05
2019-01-19T12:35:02.225Z,98213.27
2019-01-19T12:37:34.602Z,98215.23
2019-01-19T12:40:08.869Z,98209.34
2019-01-19T12:42:41.674Z,98205.46
2019-01-19T12:45:21.421Z,98207.28
2019-01-19T12:47:54.303Z,98206.91
2019-01-19T12:50:28.576Z,98199.16
2019-01-19T12:53:01.395Z,98198.42
2019-01-19T12:55:33.457Z,98197.28
2019-01-19T12:58:07.367Z,98188.59
2019-01-19T13:00:39.784Z,98189.27
2019-01-19T13:03:12.282Z,98184.82
2019-01-19T13:06:13.425Z,98179.35
2019-01-19T13:08:46.095Z,98177.56
2019-01-19T13:11:36.951Z,98171.51
2019-01-19T13:14:09.336Z,98168.90
2019-01-19T13:17:55.802Z,98166.27
2019-01-19T13:21:55.155Z,98169.32
2019-01-19T13:24:53.736Z,98152.69
2019-01-19T13:28:06.308Z,98151.77
2019-01-19T13:31:17.326Z,98147.35
2019-01-19T13:35:05.179Z,98149.01
2019-01-19T13:38:23.589Z,98142.61
2019-01-19T13:42:19.521Z,98145.57
2019-01-19T13:45:47.043Z,98141.92
2019-01-19T13:49:03.225Z,98146.39
2019-01-19T13:52:23.161Z,98144.55
2019-01-19T13:55:44.559Z,98145.75
2019-01-19T13:58:44.746Z,98144.44
2019-01-19T14:02:07.133Z,98140.48
2019-01-19T14:05:34.967Z,98142.80
2019-01-19T14:09:15.915Z,98137.12
2019-01-19T14:12:42.193Z,98140.48
2019-01-19T14:16:04.176Z,98139.95
2019-01-19T14:19:34.314Z,98131.02
2019-01-19T14:23:19.437Z,98124.34
2019-01-19T14:26:41.212Z,98115.59
2019-01-19T14:30:23.328Z,98117.09
2019-01-19T14:33:37.537Z,98115.27
2019-01-19T14:36:28.118Z,98113.70
2019-01-19T14:40:00.693Z,98109.03
2019-01-19T14:43:43.521Z,98105.27
2019-01-19T14:47:18.832Z,98111.53
2019-01-19T14:50:31.988Z,98104.06
2019-01-19T14:53:50.743Z,98103.75
2019-01-19T14:57:13.136Z,98105.13
2019-01-19T15:00:57.649Z,98101.58
2019-01-19T15:04:24.524Z,98101.48
2019-01-19T15:07:59.155Z,98104.16
2019-01-19T15:11:11.987Z,98098.92
2019-01-19T15:14:45.463Z,98096.47
2019-01-19T15:18:17.507Z,98100.94
2019-01-19T15:21:39.226Z,98096.53
2019-01-19T15:25:02.777Z,98091.20
2019-01-19T15:28:32.023Z,98090.20
2019-01-19T15:31:49.051Z,98085.41
2019-01-19T15:35:22.256Z,98083.50
2019-01-19T15:38:50.324Z,98087.37
2019-01-19T15:42:10.152Z,98086.88
2019-01-19T15:45:40.787Z,98084.27
2019-01-19T15:48:56.622Z,98082.67
2019-01-19T15:52:11.571Z,98083.45
2019-01-19T15:55:16.672Z,98082.06
2019-01-19T15:58:36.487Z,98079.02
2019-01-19T16:02:13.449Z,98082.21
2019-01-19T16:05:39.896Z,98081.48
2019-01-19T16:09:18.066Z,98082.98
2019-01-19T16:13:02.948Z,98088.47
2019-01-19T16:16:28.328Z,98083.20
2019-01-19T16:19:43.636Z,98087.37
2019-01-19T16:23:20.534Z,98088.00
2019-01-19T16:27:02.669Z,98091.81
2019-01-19T16:30:12.326Z,98092.22
2019-01-19T16:33:35.819Z,98084.52
2019-01-19T16:36:56.710Z,98085.88
2019-01-19T16:40:16.500Z,98077.11
2019-01-19T16:43:25.545Z,98083.57
2019-01-19T16:47:00.607Z,98083.12
2019-01-19T16:50:19.554Z,98084.03
2019-01-19T16:53:33.912Z,98078.30
2019-01-19T16:57:13.750Z,98084.79
2019-01-19T17:01:19.112Z,98084.62
2019-01-19T17:04:45.652Z,98076.92
2019-01-19T17:08:02.951Z,98082.52
2019-01-19T17:11:19.573Z,98080.85
2019-01-19T17:15:02.449Z,98079.23
2019-01-19T17:18:15.297Z,98078.61
2019-01-19T17:21:36.655Z,98082.34
2019-01-19T17:25:00.722Z,98073.95
2019-01-19T17:28:34.621Z,98076.94
2019-01-19T17:31:45.839Z,98081.37
2019-01-19T17:35:07.735Z,98084.22
2019-01-19T17:38:33.237Z,98086.47
2019-01-19T17:42:13.538Z,98087.23
2019-01-19T17:45:18.751Z,98087.23
2019-01-19T17:48:35.200Z,98084.75
2019-01-19T17:52:18.236Z,98088.50
2019-01-19T17:55:26.055Z,98093.98
2019-01-19T17:59:03.075Z,98095.85
2019-01-19T18:02:42.879Z,98096.91
2019-01-19T18:05:52.783Z,98092.59
2019-01-19T18:09:13.145Z,98098.48
2019-01-19T18:12:35.327Z,98096.73
2019-01-19T18:16:25.672Z,98097.52
2019-01-19T18:19:35.886Z,98095.55
2019-01-19T18:22:48.411Z,98097.14
2019-01-19T18:26:32.186Z,98104.91
2019-01-19T18:29:34.438Z,98104.09
2019-01-19T18:33:03.628Z,98106.33
2019-01-19T18:36:09.694Z,98105.54
2019-01-19T18:39:30.509Z,98112.91
2019-01-19T18:42:54.905Z,98115.36
2019-01-19T18:45:53.793Z,98108.80
2019-01-19T18:49:39.272Z,98108.25
2019-01-19T18:52:42.233Z,98108.92
2019-01-19T18:55:49.591Z,98106.09
2019-01-19T18:59:05.657Z,98104.65
2019-01-19T19:02:29.450Z,98100.60
2019-01-19T19:05:31.816Z,98101.42
2019-01-19T19:08:57.349Z,98097.37
2019-01-19T19:12:53.760Z,98101.11
2019-01-19T19:16:17.300Z,98097.73
2019-01-19T19:20:02.301Z,98099.38
2019-01-19T19:23:07.222Z,98102.77
2019-01-19T19:26:35.419Z,98107.81
2019-01-19T19:29:52.057Z,98100.71
2019-01-19T19:33:18.868Z,98101.78
2019-01-19T19:36:37.798Z,98099.48
2019-01-19T19:40:15.853Z,98099.52
2019-01-19T19:43:25.538Z,98095.92
2019-01-19T19:47:00.717Z,98098.67
2019-01-19T19:50:21.778Z,98094.33
2019-01-19T19:52:53.734Z,98092.92
2019-01-19T19:55:23.304Z,98095.14
2019-01-19T19:57:55.523Z,98095.52
2019-01-19T20:00:27.867Z,98094.27
2019-01-19T20:03:00.339Z,98094.42
2019-01-19T20:05:32.586Z,98098.66
2019-01-19T20:08:05.371Z,98099.64
2019-01-19T20:10:38.016Z,98093.81
2019-01-19T20:13:10.245Z,98094.36
2019-01-19T20:15:42.324Z,98092.66
2019-01-19T20:18:14.370Z,98096.27
2019-01-19T20:20:46.511Z,98095.39
2019-01-19T20:23:18.649Z,98090.75
2019-01-19T20:25:51.825Z,98089.76
2019-01-19T20:28:24.324Z,98089.80
2019-01-19T20:30:57.212Z,98093.41
2019-01-19T20:33:30.252Z,98097.52
2019-01-19T20:36:03.168Z,98100.16
2019-01-19T20:38:36.210Z,98097.52
2019-01-19T20:41:08.638Z,98099.19
2019-01-19T20:43:41.322Z,98098.88
2019-01-19T20:46:13.751Z,98103.52
2019-01-19T20:48:46.554Z,98102.54
2019-01-19T20:51:18.997Z,98109.98
2019-01-19T20:53:52.285Z,98110.28
2019-01-19T20:56:24.429Z,98103.94
2019-01-19T20:58:56.417Z,98108.38
2019-01-19T21:01:28.587Z,98099.53
2019-01-19T21:04:01.657Z,98101.20
2019-01-19T21:06:33.772Z,98099.60
2019-01-19T21:09:10.956Z,98100.45
2019-01-19T21:11:43.127Z,98097.23
2019-01-19T21:14:15.883Z,98104.19
2019-01-19T21:16:47.938Z,98095.02
2019-01-19T21:19:19.784Z,98098.67
2019-01-19T21:21:51.679Z,98095.25
2019-01-19T21:24:23.422Z,98091.41
2019-01-19T21:26:55.213Z,98096.69
2019-01-19T21:29:27.260Z,98099.64
2019-01-19T21:31:59.535Z,98096.56
2019-01-19T21:34:31.568Z,98095.41
2019-01-19T21:37:03.348Z,98102.23
2019-01-19T21:39:35.263Z,98101.17
2019-01-19T21:42:07.036Z,98097.66
2019-01-19T21:44:38.790Z,98094.08
2019-01-19T21:47:10.664Z,98095.98
2019-01-19T21:49:42.583Z,98086.03
2019-01-19T21:52:14.423Z,98084.08
2019-01-19T21:54:46.220Z,98090.77
2019-01-19T21:57:18.115Z,98094.01
2019-01-19T21:59:49.886Z,98095.09
2019-01-19T22:02:21.661Z,98096.70
2019-01-19T22:04:53.409Z,98091.17
2019-01-19T22:07:25.235Z,98089.44
2019-01-19T22:09:56.961Z,98094.28
2019-01-19T22:12:28.871Z,98086.12
2019-01-19T22:15:00.651Z,98091.37
2019-01-19T22:17:39.342Z,98090.90
2019-01-19T22:20:07.045Z,98093.29
2019-01-19T22:22:38.854Z,98092.48
2019-01-19T22:25:10.701Z,98097.81
2019-01-19T22:27:47.751Z,98103.77
2019-01-19T22:30:22.706Z,98099.23
2019-01-19T22:32:56.251Z,98102.95
2019-01-19T22:35:29.967Z,98100.05
2019-01-19T22:38:02.176Z,98102.47
2019-01-19T22:40:34.244Z,98100.23
2019-01-19T22:43:10.437Z,98093.49
2019-01-19T22:45:42.956Z,98100.02
2019-01-19T22:48:15.661Z,98091.53
2019-01-19T22:50:47.831Z,98089.59
2019-01-19T22:53:19.572Z,98093.03
2019-01-19T22:55:51.437Z,98095.44
2019-01-19T22:58:23.315Z,98092.65
2019-01-19T23:01:21.918Z,98095.03
2019-01-19T23:03:54.140Z,98092.00
2019-01-19T23:06:26.359Z,98090.70
2019-01-19T23:08:58.162Z,98090.45
2019-01-19T23:11:33.965Z,98086.95
2019-01-19T23:14:04.875Z,98087.67
2019-01-19T23:16:36.766Z,98092.41
2019-01-19T23:19:08.507Z,98084.11
2019-01-19T23:21:40.665Z,98088.37
2019-01-19T23:24:12.735Z,98082.94
2019-01-19T23:26:45.279Z,98080.41
2019-01-19T23:29:17.449Z,98080.66
2019-01-19T23:31:49.378Z,98083.58
2019-01-19T23:34:21.498Z,98082.73
2019-01-19T23:36:53.269Z,98080.99
2019-01-19T23:39:27.548Z,98080.08
2019-01-19T23:41:59.310Z,98079.44
2019-01-19T23:44:31.066Z,98083.40
2019-01-19T23:47:02.868Z,98082.69
2019-01-19T23:49:34.610Z,98080.73
2019-01-19T23:52:06.465Z,98084.89
2019-01-19T23:54:38.539Z,98082.94
2019-01-19T23:57:10.381Z,98080.86
2019-01-19T23:59:42.139Z,98079.75
